createdAt,value
2018-09-18T00:01:01.261Z,13.30
2018-09-18T00:03:30.540Z,13.20
2018-09-18T00:05:59.864Z,13.20
2018-09-18T00:08:29.127Z,13.20
2018-09-18T00:10:58.451Z,13.10
2018-09-18T00:13:27.718Z,13.10
2018-09-18T00:15:56.966Z,13.10
2018-09-18T00:18:26.394Z,13.10
2018-09-18T00:20:55.618Z,13.10
2018-09-18T00:23:24.858Z,13.10
2018-09-18T00:25:54.086Z,13.10
2018-09-18T00:28:23.404Z,13.10
2018-09-18T00:30:52.614Z,13.10
2018-09-18T00:33:21.825Z,13.10
2018-09-18T00:35:51.049Z,13.20
2018-09-18T00:38:20.279Z,13.20
2018-09-18T00:40:49.490Z,13.20
2018-09-18T00:43:18.689Z,13.10
2018-09-18T00:45:47.975Z,13.10
2018-09-18T00:48:17.189Z,13.10
2018-09-18T00:50:46.457Z,13.10
2018-09-18T00:53:15.711Z,13.10
2018-09-18T00:55:44.945Z,13.10
2018-09-18T00:58:14.188Z,13.00
2018-09-18T01:00:43.437Z,13.00
2018-09-18T01:03:19.452Z,13.00
2018-09-18T01:05:48.725Z,13.00
2018-09-18T01:08:17.937Z,13.00
2018-09-18T01:10:47.173Z,13.00
2018-09-18T01:13:16.466Z,13.00
2018-09-18T01:18:14.718Z,13.10
2018-09-18T01:20:43.990Z,13.30
2018-09-18T01:23:13.190Z,13.30
2018-09-18T01:25:42.445Z,13.40
2018-09-18T01:28:11.650Z,13.30
2018-09-18T01:30:40.894Z,13.30
2018-09-18T01:33:10.134Z,13.30
2018-09-18T01:35:39.350Z,13.30
2018-09-18T01:38:08.633Z,13.30
2018-09-18T01:40:37.906Z,13.30
2018-09-18T01:43:07.218Z,13.30
2018-09-18T01:45:36.473Z,13.30
2018-09-18T01:48:05.799Z,13.20
2018-09-18T01:50:35.071Z,13.20
2018-09-18T01:53:04.341Z,13.20
2018-09-18T01:55:33.632Z,13.10
2018-09-18T01:58:02.931Z,13.10
2018-09-18T02:00:32.205Z,13.10
2018-09-18T02:03:01.462Z,13.10
2018-09-18T02:05:30.776Z,13.10
2018-09-18T02:08:00.058Z,13.10
2018-09-18T02:10:29.389Z,13.10
2018-09-18T02:12:58.723Z,13.10
2018-09-18T02:15:28.025Z,13.20
2018-09-18T02:17:57.314Z,13.30
2018-09-18T02:20:26.586Z,13.30
2018-09-18T02:22:55.865Z,13.40
2018-09-18T02:25:25.099Z,13.40
2018-09-18T02:27:54.545Z,13.40
2018-09-18T02:30:23.802Z,13.60
2018-09-18T02:32:53.066Z,13.70
2018-09-18T02:35:22.317Z,13.70
2018-09-18T02:37:51.593Z,13.70
2018-09-18T02:40:20.813Z,13.60
2018-09-18T02:42:50.031Z,13.80
2018-09-18T02:45:19.266Z,13.90
2018-09-18T02:47:48.485Z,13.90
2018-09-18T02:50:17.702Z,13.80
2018-09-18T02:52:46.946Z,13.80
2018-09-18T02:55:16.156Z,13.80
2018-09-18T02:57:45.435Z,13.70
2018-09-18T03:00:14.686Z,13.70
2018-09-18T03:02:43.906Z,13.60
2018-09-18T03:05:13.274Z,13.70
2018-09-18T03:07:42.521Z,13.70
2018-09-18T03:10:11.804Z,13.80
2018-09-18T03:12:41.043Z,13.80
2018-09-18T03:15:10.279Z,13.90
2018-09-18T03:17:39.521Z,13.90
2018-09-18T03:20:08.750Z,13.90
2018-09-18T03:22:37.958Z,13.90
2018-09-18T03:25:07.171Z,13.90
2018-09-18T03:27:36.407Z,13.90
2018-09-18T03:30:05.800Z,13.90
2018-09-18T03:32:35.027Z,13.90
2018-09-18T03:35:04.218Z,13.80
2018-09-18T03:37:33.449Z,13.80
2018-09-18T03:40:02.653Z,13.90
2018-09-18T03:42:31.907Z,13.80
2018-09-18T03:45:01.153Z,13.80
2018-09-18T03:47:30.433Z,13.70
2018-09-18T03:49:59.679Z,13.70
2018-09-18T03:52:28.982Z,13.70
2018-09-18T03:54:58.253Z,13.60
2018-09-18T03:57:27.987Z,13.50
2018-09-18T03:59:57.221Z,13.50
2018-09-18T04:02:26.454Z,13.60
2018-09-18T04:04:55.701Z,13.50
2018-09-18T04:07:24.995Z,13.50
2018-09-18T04:09:54.268Z,13.30
2018-09-18T04:12:23.580Z,13.30
2018-09-18T04:14:52.854Z,13.20
2018-09-18T04:17:23.028Z,13.20
2018-09-18T04:19:52.326Z,13.10
2018-09-18T04:22:21.588Z,13.00
2018-09-18T04:24:50.825Z,13.00
2018-09-18T04:27:20.071Z,13.00
2018-09-18T04:29:49.307Z,13.00
2018-09-18T04:32:18.614Z,13.00
2018-09-18T04:34:47.842Z,13.00
2018-09-18T04:37:17.131Z,13.10
2018-09-18T04:39:46.417Z,13.10
2018-09-18T04:42:15.799Z,13.00
2018-09-18T04:44:45.103Z,13.00
2018-09-18T04:47:14.425Z,13.00
2018-09-18T04:49:43.712Z,12.90
2018-09-18T04:52:12.994Z,12.80
2018-09-18T04:54:42.287Z,12.80
2018-09-18T04:57:11.569Z,12.80
2018-09-18T04:59:41.250Z,12.70
2018-09-18T05:02:11.192Z,12.60
2018-09-18T05:04:40.373Z,12.60
2018-09-18T05:07:09.661Z,12.60
2018-09-18T05:09:38.930Z,12.60
2018-09-18T05:12:08.194Z,12.70
2018-09-18T05:14:37.473Z,12.80
2018-09-18T05:17:06.770Z,13.00
2018-09-18T05:19:36.114Z,13.00
2018-09-18T05:22:05.524Z,13.10
2018-09-18T05:24:34.939Z,13.20
2018-09-18T05:27:05.312Z,13.30
2018-09-18T05:29:34.647Z,13.40
2018-09-18T05:32:03.898Z,13.50
2018-09-18T05:34:33.163Z,13.60
2018-09-18T05:37:02.400Z,13.70
2018-09-18T05:39:31.728Z,13.70
2018-09-18T05:42:01.082Z,13.80
2018-09-18T05:44:30.333Z,13.90
2018-09-18T05:46:59.627Z,13.90
2018-09-18T05:49:30.234Z,14.00
2018-09-18T05:51:59.917Z,14.00
2018-09-18T05:54:29.256Z,14.10
2018-09-18T05:56:58.534Z,14.20
2018-09-18T05:59:27.854Z,14.40
2018-09-18T06:01:57.167Z,14.50
2018-09-18T06:04:26.541Z,14.70
2018-09-18T06:06:55.792Z,14.90
2018-09-18T06:09:25.144Z,15.00
2018-09-18T06:11:54.430Z,15.00
2018-09-18T06:14:23.761Z,15.30
2018-09-18T06:16:53.022Z,15.40
2018-09-18T06:19:22.322Z,15.50
2018-09-18T06:21:51.645Z,15.60
2018-09-18T06:24:20.949Z,15.70
2018-09-18T06:26:50.214Z,15.80
2018-09-18T06:29:19.494Z,15.90
2018-09-18T06:31:48.713Z,16.00
2018-09-18T06:34:18.058Z,16.10
2018-09-18T06:36:47.351Z,16.20
2018-09-18T06:39:16.654Z,16.30
2018-09-18T06:41:45.997Z,16.40
2018-09-18T06:44:15.414Z,16.60
2018-09-18T06:46:44.673Z,16.60
2018-09-18T06:49:14.020Z,16.80
2018-09-18T06:51:43.270Z,16.90
2018-09-18T06:54:12.533Z,17.00
2018-09-18T06:56:41.758Z,17.20
2018-09-18T06:59:10.990Z,17.30
2018-09-18T07:01:40.274Z,17.40
2018-09-18T07:04:09.495Z,17.60
2018-09-18T07:06:38.823Z,17.70
2018-09-18T07:09:09.107Z,17.80
2018-09-18T07:11:38.382Z,17.90
2018-09-18T07:14:07.714Z,18.10
2018-09-18T07:16:36.985Z,18.20
2018-09-18T07:19:06.365Z,18.30
2018-09-18T07:21:36.129Z,18.30
2018-09-18T07:24:05.363Z,18.40
2018-09-18T07:26:34.621Z,18.50
2018-09-18T07:29:03.834Z,18.60
2018-09-18T07:31:33.199Z,18.80
2018-09-18T07:34:02.568Z,18.90
2018-09-18T07:36:31.921Z,19.00
2018-09-18T07:39:01.187Z,19.20
2018-09-18T07:41:30.677Z,19.30
2018-09-18T07:44:00.017Z,19.40
2018-09-18T07:46:29.402Z,19.40
2018-09-18T07:49:03.204Z,19.50
2018-09-18T07:51:33.714Z,19.60
2018-09-18T07:54:03.344Z,19.70
2018-09-18T07:56:32.851Z,19.80
2018-09-18T07:59:02.639Z,20.00
2018-09-18T08:01:32.857Z,20.10
2018-09-18T08:04:02.282Z,20.30
2018-09-18T08:06:31.698Z,20.40
2018-09-18T08:09:01.160Z,20.40
2018-09-18T08:11:30.772Z,20.60
2018-09-18T08:14:00.121Z,20.70
2018-09-18T08:16:29.442Z,20.80
2018-09-18T08:18:59.199Z,21.00
2018-09-18T08:21:28.370Z,21.10
2018-09-18T08:23:57.571Z,21.20
2018-09-18T08:26:26.786Z,21.30
2018-09-18T08:28:56.019Z,21.50
2018-09-18T08:31:26.288Z,21.60
2018-09-18T08:33:55.529Z,21.80
2018-09-18T08:36:24.806Z,22.00
2018-09-18T08:38:54.051Z,22.10
2018-09-18T08:41:23.313Z,22.20
2018-09-18T08:43:52.647Z,22.30
2018-09-18T08:46:21.829Z,22.40
2018-09-18T08:48:56.743Z,22.50
2018-09-18T08:51:26.352Z,22.60
2018-09-18T08:53:55.603Z,22.70
2018-09-18T08:56:24.824Z,22.80
2018-09-18T08:58:54.080Z,23.00
2018-09-18T09:01:23.489Z,23.20
2018-09-18T09:03:52.858Z,23.40
2018-09-18T09:06:22.176Z,23.60
2018-09-18T09:08:51.492Z,23.80
2018-09-18T09:11:20.636Z,23.80
2018-09-18T09:16:18.781Z,24.00
2018-09-18T09:18:47.980Z,24.20
2018-09-18T09:21:17.258Z,24.40
2018-09-18T09:23:46.459Z,24.60
2018-09-18T09:26:15.695Z,24.80
2018-09-18T09:28:44.906Z,24.90
2018-09-18T09:31:14.352Z,25.10
2018-09-18T09:33:43.634Z,25.40
2018-09-18T09:36:12.890Z,25.60
2018-09-18T09:38:42.469Z,25.70
2018-09-18T09:41:11.757Z,25.80
2018-09-18T09:43:41.219Z,26.00
2018-09-18T09:46:10.486Z,26.10
2018-09-18T09:48:39.836Z,26.20
2018-09-18T09:51:09.159Z,26.30
2018-09-18T09:53:38.450Z,26.30
2018-09-18T09:56:07.946Z,26.40
2018-09-18T09:58:37.279Z,26.40
2018-09-18T10:01:11.837Z,26.40
2018-09-18T10:03:41.289Z,26.50
2018-09-18T10:06:10.562Z,26.60
2018-09-18T10:08:40.002Z,26.70
2018-09-18T10:11:09.367Z,26.80
2018-09-18T10:13:38.778Z,27.00
2018-09-18T10:16:08.036Z,27.10
2018-09-18T10:18:37.359Z,27.10
2018-09-18T10:21:06.728Z,27.20
2018-09-18T10:23:36.119Z,27.20
2018-09-18T10:26:05.507Z,27.40
2018-09-18T10:28:34.806Z,27.40
2018-09-18T10:31:04.070Z,27.40
2018-09-18T10:33:33.429Z,27.40
2018-09-18T10:36:02.734Z,27.50
2018-09-18T10:38:32.044Z,27.70
2018-09-18T10:41:01.379Z,27.80
2018-09-18T10:43:30.519Z,27.80
2018-09-18T10:45:59.708Z,27.90
2018-09-18T10:48:28.994Z,28.00
2018-09-18T10:50:58.222Z,28.10
2018-09-18T10:53:27.498Z,28.20
2018-09-18T10:55:56.778Z,28.30
2018-09-18T10:58:26.109Z,28.40
2018-09-18T11:00:55.410Z,28.60
2018-09-18T11:03:24.674Z,28.70
2018-09-18T11:05:54.002Z,28.60
2018-09-18T11:08:23.200Z,28.60
2018-09-18T11:10:52.512Z,28.70
2018-09-18T11:13:21.682Z,28.70
2018-09-18T11:15:50.959Z,28.90
2018-09-18T11:18:20.166Z,29.00
2018-09-18T11:20:49.465Z,29.10
2018-09-18T11:23:18.845Z,29.20
2018-09-18T11:25:48.236Z,29.10
2018-09-18T11:28:17.473Z,29.00
2018-09-18T11:30:46.912Z,29.00
2018-09-18T11:33:16.150Z,29.20
2018-09-18T11:35:45.687Z,29.30
2018-09-18T11:38:14.906Z,29.20
2018-09-18T11:40:44.219Z,29.30
2018-09-18T11:43:13.474Z,29.40
2018-09-18T11:45:42.837Z,29.50
2018-09-18T11:48:12.144Z,29.40
2018-09-18T11:50:41.439Z,29.40
2018-09-18T11:53:10.713Z,29.50
2018-09-18T11:55:40.035Z,29.50
2018-09-18T11:58:09.298Z,29.80
2018-09-18T12:00:38.619Z,29.90
2018-09-18T12:03:07.978Z,29.90
2018-09-18T12:05:38.393Z,29.90
2018-09-18T12:08:07.767Z,29.80
2018-09-18T12:10:37.018Z,29.70
2018-09-18T12:13:06.270Z,29.60
2018-09-18T12:15:35.530Z,29.40
2018-09-18T12:18:04.845Z,29.50
2018-09-18T12:20:34.203Z,29.60
2018-09-18T12:23:05.122Z,29.70
2018-09-18T12:25:34.454Z,30.00
2018-09-18T12:28:03.850Z,30.10
2018-09-18T12:30:33.150Z,30.10
2018-09-18T12:33:02.411Z,30.10
2018-09-18T12:35:31.767Z,30.20
2018-09-18T12:38:01.011Z,30.10
2018-09-18T12:40:30.385Z,30.00
2018-09-18T12:42:59.718Z,30.00
2018-09-18T12:45:29.043Z,30.00
2018-09-18T12:47:58.359Z,30.10
2018-09-18T12:50:27.751Z,30.20
2018-09-18T12:52:56.931Z,30.20
2018-09-18T12:55:26.219Z,30.20
2018-09-18T12:57:55.717Z,30.20
2018-09-18T13:00:25.034Z,30.30
2018-09-18T13:02:54.470Z,30.50
2018-09-18T13:05:23.759Z,30.70
2018-09-18T13:07:53.157Z,30.70
2018-09-18T13:10:22.441Z,30.80
2018-09-18T13:12:51.807Z,30.30
2018-09-18T13:15:21.081Z,29.80
2018-09-18T13:17:50.368Z,29.60
2018-09-18T13:20:19.664Z,29.80
2018-09-18T13:22:49.017Z,30.00
2018-09-18T13:25:18.303Z,30.00
2018-09-18T13:27:47.643Z,30.10
2018-09-18T13:30:16.857Z,30.20
2018-09-18T13:32:46.206Z,30.30
2018-09-18T13:35:15.442Z,30.40
2018-09-18T13:37:44.749Z,30.50
2018-09-18T13:40:13.986Z,30.50
2018-09-18T13:42:43.250Z,30.10
2018-09-18T13:45:12.605Z,29.80
2018-09-18T13:47:41.896Z,29.80
2018-09-18T13:50:11.232Z,30.00
2018-09-18T13:52:40.429Z,30.10
2018-09-18T13:55:09.656Z,29.90
2018-09-18T13:57:38.961Z,29.80
2018-09-18T14:00:08.235Z,29.90
2018-09-18T14:02:37.449Z,30.10
2018-09-18T14:05:06.774Z,30.30
2018-09-18T14:07:36.016Z,30.20
2018-09-18T14:10:05.277Z,30.20
2018-09-18T14:12:34.512Z,30.10
2018-09-18T14:15:03.772Z,30.00
2018-09-18T14:17:33.074Z,29.90
2018-09-18T14:20:02.864Z,29.80
2018-09-18T14:22:32.067Z,29.70
2018-09-18T14:25:01.444Z,29.80
2018-09-18T14:27:30.943Z,29.90
2018-09-18T14:30:00.315Z,29.80
2018-09-18T14:32:29.555Z,30.00
2018-09-18T14:34:58.839Z,30.00
2018-09-18T14:37:28.110Z,30.00
2018-09-18T14:39:57.358Z,30.10
2018-09-18T14:42:26.654Z,30.10
2018-09-18T14:44:55.811Z,30.20
2018-09-18T14:47:25.077Z,30.20
2018-09-18T14:49:54.367Z,30.20
2018-09-18T14:52:23.666Z,30.10
2018-09-18T14:54:52.914Z,30.10
2018-09-18T14:57:22.113Z,30.10
2018-09-18T14:59:51.448Z,30.00
2018-09-18T15:02:20.662Z,30.00
2018-09-18T15:04:49.968Z,29.80
2018-09-18T15:07:19.244Z,29.70
2018-09-18T15:09:48.523Z,29.60
2018-09-18T15:12:17.802Z,29.50
2018-09-18T15:14:47.110Z,29.40
2018-09-18T15:17:16.349Z,29.10
2018-09-18T15:19:45.642Z,28.70
2018-09-18T15:22:14.897Z,28.40
2018-09-18T15:24:44.197Z,28.10
2018-09-18T15:27:13.566Z,27.80
2018-09-18T15:29:42.820Z,27.50
2018-09-18T15:32:12.092Z,27.30
2018-09-18T15:34:41.337Z,27.10
2018-09-18T15:37:10.517Z,27.00
2018-09-18T15:39:39.852Z,26.80
2018-09-18T15:42:09.048Z,26.70
2018-09-18T15:44:38.299Z,26.60
2018-09-18T15:47:07.529Z,26.60
2018-09-18T15:49:36.790Z,26.50
2018-09-18T15:52:06.248Z,26.50
2018-09-18T15:54:35.441Z,26.50
2018-09-18T15:57:04.892Z,26.50
2018-09-18T15:59:34.183Z,26.60
2018-09-18T16:02:04.003Z,26.50
2018-09-18T16:04:33.361Z,26.50
2018-09-18T16:07:02.607Z,26.40
2018-09-18T16:09:32.774Z,26.40
2018-09-18T16:12:02.049Z,26.30
2018-09-18T16:14:31.367Z,26.20
2018-09-18T16:17:00.597Z,26.10
2018-09-18T16:19:29.914Z,26.00
2018-09-18T16:21:59.450Z,26.00
2018-09-18T16:24:28.739Z,25.80
2018-09-18T16:26:58.131Z,25.80
2018-09-18T16:29:28.282Z,25.70
2018-09-18T16:32:08.969Z,25.60
2018-09-18T16:34:41.414Z,25.60
2018-09-18T16:37:12.010Z,25.60
2018-09-18T16:39:41.295Z,25.60
2018-09-18T16:42:10.610Z,25.70
2018-09-18T16:44:39.843Z,25.60
2018-09-18T16:47:09.130Z,25.60
2018-09-18T16:49:38.399Z,25.50
2018-09-18T16:54:37.083Z,25.40
2018-09-18T16:57:06.419Z,25.30
2018-09-18T16:59:35.723Z,25.20
2018-09-18T17:02:05.176Z,25.10
2018-09-18T17:04:34.573Z,25.00
2018-09-18T17:07:03.785Z,24.90
2018-09-18T17:09:33.063Z,24.90
2018-09-18T17:12:02.389Z,24.80
2018-09-18T17:14:31.726Z,24.70
2018-09-18T17:17:01.040Z,24.60
2018-09-18T17:19:30.419Z,24.50
2018-09-18T17:21:59.688Z,24.30
2018-09-18T17:24:28.987Z,24.30
2018-09-18T17:26:58.369Z,24.00
2018-09-18T17:29:27.757Z,24.10
2018-09-18T17:31:57.222Z,23.90
2018-09-18T17:34:26.521Z,23.80
2018-09-18T17:36:55.796Z,23.80
2018-09-18T17:39:25.164Z,23.70
2018-09-18T17:41:54.481Z,23.70
2018-09-18T17:44:24.005Z,23.70
2018-09-18T17:46:54.804Z,23.60
2018-09-18T17:49:24.258Z,23.60
2018-09-18T17:51:54.188Z,23.60
2018-09-18T17:54:23.748Z,23.60
2018-09-18T17:56:53.101Z,23.50
2018-09-18T17:59:22.396Z,23.50
2018-09-18T18:01:51.738Z,23.40
2018-09-18T18:04:21.104Z,23.30
2018-09-18T18:06:50.421Z,23.30
2018-09-18T18:09:20.082Z,23.20
2018-09-18T18:11:49.453Z,23.30
2018-09-18T18:14:18.758Z,23.20
2018-09-18T18:16:48.081Z,23.10
2018-09-18T18:19:17.509Z,23.00
2018-09-18T18:21:47.131Z,22.90
2018-09-18T18:24:16.624Z,23.00
2018-09-18T18:26:45.970Z,23.00
2018-09-18T18:29:15.265Z,22.80
2018-09-18T18:31:44.587Z,22.70
2018-09-18T18:34:13.853Z,22.70
2018-09-18T18:36:48.960Z,22.60
2018-09-18T18:39:18.418Z,22.60
2018-09-18T18:41:52.760Z,22.60
2018-09-18T18:44:22.040Z,22.50
2018-09-18T18:46:51.343Z,22.40
2018-09-18T18:49:20.664Z,22.30
2018-09-18T18:51:49.950Z,22.30
2018-09-18T18:54:19.285Z,22.20
2018-09-18T18:56:50.518Z,22.10
2018-09-18T18:59:21.038Z,22.10
2018-09-18T19:01:50.691Z,22.00
2018-09-18T19:04:22.923Z,21.90
2018-09-18T19:06:52.462Z,21.80
2018-09-18T19:09:21.792Z,21.80
2018-09-18T19:11:51.098Z,21.70
2018-09-18T19:14:20.466Z,21.60
2018-09-18T19:16:49.762Z,21.60
2018-09-18T19:19:19.103Z,21.70
2018-09-18T19:21:48.340Z,21.80
2018-09-18T19:24:22.495Z,21.70
2018-09-18T19:26:54.914Z,21.60
2018-09-18T19:29:24.292Z,21.50
2018-09-18T19:31:53.535Z,21.40
2018-09-18T19:34:22.836Z,21.40
2018-09-18T19:36:59.190Z,21.40
2018-09-18T19:39:28.679Z,21.40
2018-09-18T19:41:57.936Z,21.40
2018-09-18T19:44:27.244Z,21.30
2018-09-18T19:46:58.035Z,21.30
2018-09-18T19:49:29.320Z,21.20
2018-09-18T19:51:58.614Z,21.20
2018-09-18T19:54:28.082Z,21.10
2018-09-18T19:56:57.414Z,21.10
2018-09-18T19:59:27.818Z,21.00
2018-09-18T20:01:57.071Z,20.90
2018-09-18T20:04:26.422Z,20.90
2018-09-18T20:06:55.726Z,20.80
2018-09-18T20:09:25.140Z,20.70
2018-09-18T20:11:54.394Z,20.70
2018-09-18T20:14:23.677Z,20.60
2018-09-18T20:16:53.081Z,20.50
2018-09-18T20:19:22.519Z,20.50
2018-09-18T20:21:51.858Z,20.40
2018-09-18T20:24:21.175Z,20.30
2018-09-18T20:26:50.469Z,20.30
2018-09-18T20:29:19.750Z,20.20
2018-09-18T20:31:49.110Z,20.20
2018-09-18T20:34:18.439Z,20.10
2018-09-18T20:36:47.786Z,20.00
2018-09-18T20:39:17.167Z,20.00
2018-09-18T20:41:46.469Z,20.10
2018-09-18T20:44:15.837Z,20.10
2018-09-18T20:46:45.199Z,20.10
2018-09-18T20:49:14.572Z,20.10
2018-09-18T20:51:43.848Z,20.10
2018-09-18T20:54:13.130Z,20.20
2018-09-18T20:56:42.425Z,20.30
2018-09-18T20:59:11.906Z,20.30
2018-09-18T21:04:10.158Z,20.40
2018-09-18T21:06:39.440Z,20.50
2018-09-18T21:09:09.837Z,20.60
2018-09-18T21:11:39.182Z,20.60
2018-09-18T21:14:09.118Z,20.70
2018-09-18T21:16:38.386Z,20.70
2018-09-18T21:19:07.722Z,20.70
2018-09-18T21:21:37.080Z,20.70
2018-09-18T21:24:06.439Z,20.70
2018-09-18T21:26:35.687Z,20.70
2018-09-18T21:29:05.109Z,20.60
2018-09-18T21:31:34.539Z,20.50
2018-09-18T21:34:03.886Z,20.40
2018-09-18T21:36:33.316Z,20.40
2018-09-18T21:39:02.559Z,20.40
2018-09-18T21:41:31.788Z,20.40
2018-09-18T21:44:01.063Z,20.40
2018-09-18T21:46:30.294Z,20.50
2018-09-18T21:48:59.532Z,20.60
2018-09-18T21:51:28.772Z,20.60
2018-09-18T21:53:58.013Z,20.70
2018-09-18T21:56:27.316Z,20.70
2018-09-18T21:58:56.589Z,20.60
2018-09-18T22:01:25.852Z,20.50
2018-09-18T22:03:55.013Z,20.50
2018-09-18T22:06:24.282Z,20.60
2018-09-18T22:08:53.526Z,20.60
2018-09-18T22:11:22.732Z,20.70
2018-09-18T22:13:52.039Z,20.60
2018-09-18T22:16:21.254Z,20.60
2018-09-18T22:18:50.478Z,20.50
2018-09-18T22:21:19.695Z,20.50
2018-09-18T22:23:49.019Z,20.40
2018-09-18T22:26:18.391Z,20.30
2018-09-18T22:28:48.002Z,20.20
2018-09-18T22:31:17.309Z,20.00
2018-09-18T22:33:46.613Z,19.90
2018-09-18T22:36:15.863Z,19.90
2018-09-18T22:38:45.114Z,19.90
2018-09-18T22:41:14.430Z,19.90
2018-09-18T22:43:43.743Z,19.90
2018-09-18T22:46:12.955Z,19.90
2018-09-18T22:48:42.271Z,20.00
2018-09-18T22:51:11.466Z,20.20
2018-09-18T22:53:40.808Z,20.20
2018-09-18T22:56:10.183Z,20.30
2018-09-18T22:58:39.637Z,20.30
2018-09-18T23:01:08.864Z,20.30
2018-09-18T23:03:38.123Z,20.30
2018-09-18T23:06:07.406Z,20.30
2018-09-18T23:08:36.633Z,20.20
2018-09-18T23:11:05.882Z,20.20
2018-09-18T23:13:35.108Z,20.20
2018-09-18T23:16:04.386Z,20.30
2018-09-18T23:18:33.617Z,20.20
2018-09-18T23:21:02.865Z,20.10
2018-09-18T23:23:32.111Z,20.10
2018-09-18T23:26:01.356Z,19.90
2018-09-18T23:28:30.676Z,19.80
2018-09-18T23:30:59.966Z,19.70
2018-09-18T23:33:29.187Z,19.60
2018-09-18T23:35:58.411Z,19.40
2018-09-18T23:38:27.674Z,19.30
2018-09-18T23:40:56.909Z,19.30
2018-09-18T23:43:26.134Z,19.20
2018-09-18T23:45:55.373Z,19.20
2018-09-18T23:48:24.565Z,19.10
2018-09-18T23:50:53.795Z,19.20
2018-09-18T23:53:23.029Z,19.20
2018-09-18T23:55:52.290Z,19.10
2018-09-18T23:58:21.580Z,19.00
